This is the latest recevied weather packets stored in our database for station/object N4PWG. If no packets are shown the sender has not sent any weather packets the latest 10 day(s).
| Time | Temp. | Humidity | Pressure | Rain* | Wind** | Luminosity | Snow |
|---|---|---|---|---|---|---|---|
| 1778163548 | 15° C | 65% | 1034.9 hPa | 0 mm | - | 417 W/m² | - |
| 1778163244 | 14.44° C | 69% | 1035 hPa | 0 mm | - | 387 W/m² | - |
| 1778162940 | 14.44° C | 67% | 1035.1 hPa | 0 mm | - | 376 W/m² | - |
| 1778162637 | 15° C | 65% | 1035.2 hPa | 0 mm | - | 363 W/m² | - |
| 1778162335 | 14.44° C | 67% | 1035.2 hPa | 0 mm | - | 365 W/m² | - |
| 1778162031 | 13.89° C | 71% | 1035.4 hPa | 0 mm | - | 351 W/m² | - |
| 1778161729 | 13.89° C | 71% | 1035.2 hPa | 0 mm | - | 366 W/m² | - |
| 1778161425 | 13.89° C | 70% | 1035.1 hPa | 0 mm | - | 343 W/m² | - |
| 1778161121 | 13.33° C | 74% | 1035 hPa | 0 mm | - | 333 W/m² | - |
| 1778160817 | 13.33° C | 71% | 1035.1 hPa | 0 mm | - | 285 W/m² | - |
| 1778160516 | 13.33° C | 72% | 1035 hPa | 0 mm | - | 252 W/m² | - |
| 1778160211 | 13.33° C | 74% | 1034.8 hPa | 0 mm | - | 254 W/m² | - |
| 1778159909 | 13.33° C | 71% | 1034.8 hPa | 0 mm | - | 247 W/m² | - |
| 1778159605 | 12.78° C | 77% | 1034.9 hPa | 0 mm | - | 204 W/m² | - |
| 1778159302 | 12.22° C | 75% | 1035 hPa | 0 mm | - | 192 W/m² | - |
| 1778158999 | 11.67° C | 80% | 1035 hPa | 0 mm | - | 170 W/m² | - |
| 1778158698 | 11.67° C | 77% | 1034.9 hPa | 0 mm | - | 141 W/m² | - |
| 1778158395 | 11.67° C | 79% | 1034.9 hPa | 0 mm | - | 176 W/m² | - |
| 1778158093 | 11.67° C | 80% | 1034.9 hPa | 0 mm | - | 119 W/m² | - |
| 1778157789 | 11.67° C | 84% | 1034.8 hPa | 0 mm | - | 90 W/m² | - |
| 1778157488 | 11.11° C | 84% | 1035 hPa | 0 mm | - | 78 W/m² | - |
| 1778157185 | 10.56° C | 88% | 1034.7 hPa | 0 mm | - | 70 W/m² | - |
| 1778156880 | 10.56° C | 88% | 1034.8 hPa | 0 mm | - | 63 W/m² | - |
| 1778156575 | 10° C | 91% | 1034.7 hPa | 0 mm | - | 53 W/m² | - |
| 1778156272 | 9.44° C | 97% | 1034.3 hPa | 0 mm | - | 47 W/m² | - |
* Rain latest hour (hover to see other rain measurements)
** Current wind speed in m/s (hover to see current wind gust speed)